Aviation Digital Data Service (ADDS)

Output produced by METARs form (0939 UTC 01 November 2014)
found at http://aviationweather.gov/adds/metars/
 
KLFT 010853Z AUTO 03012KT 10SM CLR 09/02 A3026 RMK AO2 SLP246 T00940022 53007